sensor_id;sensor_type;location;lat;lon;timestamp;P1;durP1;ratioP1;P2;durP2;ratioP2
20324;SDS011;10320;49.482;11.256;2022-10-31T00:00:21;23.30;;;15.30;;
20324;SDS011;10320;49.482;11.256;2022-10-31T00:02:47;19.27;;;13.83;;
20324;SDS011;10320;49.482;11.256;2022-10-31T00:05:13;20.87;;;14.47;;
20324;SDS011;10320;49.482;11.256;2022-10-31T00:07:39;22.80;;;13.93;;
20324;SDS011;10320;49.482;11.256;2022-10-31T00:10:05;17.87;;;13.40;;
20324;SDS011;10320;49.482;11.256;2022-10-31T00:12:31;19.63;;;14.13;;
20324;SDS011;10320;49.482;11.256;2022-10-31T00:14:57;17.80;;;13.47;;
20324;SDS011;10320;49.482;11.256;2022-10-31T00:17:23;20.73;;;14.47;;
20324;SDS011;10320;49.482;11.256;2022-10-31T00:19:49;20.37;;;13.80;;
20324;SDS011;10320;49.482;11.256;2022-10-31T00:22:15;16.63;;;13.53;;
20324;SDS011;10320;49.482;11.256;2022-10-31T00:24:41;19.83;;;13.30;;
20324;SDS011;10320;49.482;11.256;2022-10-31T00:27:07;21.20;;;14.23;;
20324;SDS011;10320;49.482;11.256;2022-10-31T00:29:33;16.70;;;13.73;;
20324;SDS011;10320;49.482;11.256;2022-10-31T00:32:02;21.70;;;13.53;;
20324;SDS011;10320;49.482;11.256;2022-10-31T00:34:28;21.20;;;14.30;;
20324;SDS011;10320;49.482;11.256;2022-10-31T00:36:54;18.97;;;13.83;;
20324;SDS011;10320;49.482;11.256;2022-10-31T00:39:20;17.80;;;13.70;;
20324;SDS011;10320;49.482;11.256;2022-10-31T00:41:46;18.23;;;14.60;;
20324;SDS011;10320;49.482;11.256;2022-10-31T00:44:12;16.77;;;13.37;;
20324;SDS011;10320;49.482;11.256;2022-10-31T00:46:38;19.43;;;13.67;;
20324;SDS011;10320;49.482;11.256;2022-10-31T00:49:04;20.40;;;14.27;;
20324;SDS011;10320;49.482;11.256;2022-10-31T00:51:30;18.63;;;14.77;;
20324;SDS011;10320;49.482;11.256;2022-10-31T00:53:56;19.70;;;14.70;;
20324;SDS011;10320;49.482;11.256;2022-10-31T00:56:22;22.80;;;14.33;;
20324;SDS011;10320;49.482;11.256;2022-10-31T00:58:47;23.20;;;14.77;;
20324;SDS011;10320;49.482;11.256;2022-10-31T01:01:13;19.90;;;14.70;;
20324;SDS011;10320;49.482;11.256;2022-10-31T01:03:39;22.13;;;14.13;;
20324;SDS011;10320;49.482;11.256;2022-10-31T01:06:07;17.80;;;14.67;;
20324;SDS011;10320;49.482;11.256;2022-10-31T01:08:34;21.30;;;14.40;;
20324;SDS011;10320;49.482;11.256;2022-10-31T01:11:07;16.60;;;13.87;;
20324;SDS011;10320;49.482;11.256;2022-10-31T01:13:34;21.33;;;14.07;;
20324;SDS011;10320;49.482;11.256;2022-10-31T01:16:01;17.43;;;14.43;;
20324;SDS011;10320;49.482;11.256;2022-10-31T01:18:27;21.33;;;14.43;;
20324;SDS011;10320;49.482;11.256;2022-10-31T01:20:57;19.37;;;13.97;;
20324;SDS011;10320;49.482;11.256;2022-10-31T01:23:24;18.83;;;14.27;;
20324;SDS011;10320;49.482;11.256;2022-10-31T01:25:58;18.87;;;14.63;;
20324;SDS011;10320;49.482;11.256;2022-10-31T01:28:24;20.10;;;14.53;;
20324;SDS011;10320;49.482;11.256;2022-10-31T01:30:50;16.13;;;13.37;;
20324;SDS011;10320;49.482;11.256;2022-10-31T01:33:16;18.97;;;14.03;;
20324;SDS011;10320;49.482;11.256;2022-10-31T01:35:42;19.67;;;14.63;;
20324;SDS011;10320;49.482;11.256;2022-10-31T01:38:07;18.77;;;14.07;;
20324;SDS011;10320;49.482;11.256;2022-10-31T01:40:33;18.00;;;14.07;;
20324;SDS011;10320;49.482;11.256;2022-10-31T01:43:00;16.63;;;13.20;;
20324;SDS011;10320;49.482;11.256;2022-10-31T01:45:25;18.57;;;12.77;;
20324;SDS011;10320;49.482;11.256;2022-10-31T01:47:51;19.07;;;14.17;;
20324;SDS011;10320;49.482;11.256;2022-10-31T01:50:34;18.93;;;13.40;;
20324;SDS011;10320;49.482;11.256;2022-10-31T01:53:01;17.80;;;12.87;;
20324;SDS011;10320;49.482;11.256;2022-10-31T01:55:32;18.97;;;14.23;;
20324;SDS011;10320;49.482;11.256;2022-10-31T01:58:00;19.67;;;14.07;;
20324;SDS011;10320;49.482;11.256;2022-10-31T02:00:27;19.23;;;12.73;;
20324;SDS011;10320;49.482;11.256;2022-10-31T02:02:53;15.93;;;13.13;;
20324;SDS011;10320;49.482;11.256;2022-10-31T02:05:21;18.33;;;13.20;;
20324;SDS011;10320;49.482;11.256;2022-10-31T02:07:52;17.30;;;13.33;;
20324;SDS011;10320;49.482;11.256;2022-10-31T02:10:19;20.90;;;13.97;;
20324;SDS011;10320;49.482;11.256;2022-10-31T02:12:45;18.20;;;13.80;;
20324;SDS011;10320;49.482;11.256;2022-10-31T02:15:11;19.23;;;13.70;;
20324;SDS011;10320;49.482;11.256;2022-10-31T02:17:37;19.10;;;13.30;;
20324;SDS011;10320;49.482;11.256;2022-10-31T02:30:10;16.10;;;12.93;;
20324;SDS011;10320;49.482;11.256;2022-10-31T02:32:43;18.00;;;14.07;;
20324;SDS011;10320;49.482;11.256;2022-10-31T02:37:48;18.80;;;14.17;;
20324;SDS011;10320;49.482;11.256;2022-10-31T02:42:50;18.33;;;14.03;;
20324;SDS011;10320;49.482;11.256;2022-10-31T02:47:52;16.13;;;13.13;;
20324;SDS011;10320;49.482;11.256;2022-10-31T02:50:23;20.40;;;14.73;;
20324;SDS011;10320;49.482;11.256;2022-10-31T02:52:51;17.40;;;13.30;;
20324;SDS011;10320;49.482;11.256;2022-10-31T02:57:56;17.90;;;14.33;;
20324;SDS011;10320;49.482;11.256;2022-10-31T03:00:24;17.87;;;13.77;;
20324;SDS011;10320;49.482;11.256;2022-10-31T03:02:56;17.37;;;13.50;;
20324;SDS011;10320;49.482;11.256;2022-10-31T03:08:37;18.23;;;13.60;;
20324;SDS011;10320;49.482;11.256;2022-10-31T03:11:07;18.37;;;13.30;;
20324;SDS011;10320;49.482;11.256;2022-10-31T03:13:41;18.07;;;13.80;;
20324;SDS011;10320;49.482;11.256;2022-10-31T03:18:56;15.27;;;13.10;;
20324;SDS011;10320;49.482;11.256;2022-10-31T03:21:25;15.37;;;12.33;;
20324;SDS011;10320;49.482;11.256;2022-10-31T03:23:53;15.67;;;12.37;;
20324;SDS011;10320;49.482;11.256;2022-10-31T03:26:21;17.23;;;11.60;;
20324;SDS011;10320;49.482;11.256;2022-10-31T03:28:52;17.47;;;12.37;;
20324;SDS011;10320;49.482;11.256;2022-10-31T03:31:19;15.47;;;11.67;;
20324;SDS011;10320;49.482;11.256;2022-10-31T03:33:49;17.13;;;13.27;;
20324;SDS011;10320;49.482;11.256;2022-10-31T03:36:16;14.40;;;12.57;;
20324;SDS011;10320;49.482;11.256;2022-10-31T03:38:42;16.87;;;13.37;;
20324;SDS011;10320;49.482;11.256;2022-10-31T03:41:12;17.17;;;12.30;;
20324;SDS011;10320;49.482;11.256;2022-10-31T03:43:40;16.70;;;12.83;;
20324;SDS011;10320;49.482;11.256;2022-10-31T03:46:07;16.23;;;12.70;;
20324;SDS011;10320;49.482;11.256;2022-10-31T03:48:33;16.90;;;12.77;;
20324;SDS011;10320;49.482;11.256;2022-10-31T03:51:07;14.93;;;12.03;;
20324;SDS011;10320;49.482;11.256;2022-10-31T03:53:38;15.33;;;12.00;;
20324;SDS011;10320;49.482;11.256;2022-10-31T03:56:08;16.47;;;12.13;;
20324;SDS011;10320;49.482;11.256;2022-10-31T03:58:36;16.73;;;11.90;;
20324;SDS011;10320;49.482;11.256;2022-10-31T04:01:04;18.20;;;12.33;;
20324;SDS011;10320;49.482;11.256;2022-10-31T04:03:34;18.70;;;12.90;;
20324;SDS011;10320;49.482;11.256;2022-10-31T04:06:03;16.27;;;12.80;;
20324;SDS011;10320;49.482;11.256;2022-10-31T04:08:30;13.47;;;11.70;;
20324;SDS011;10320;49.482;11.256;2022-10-31T04:10:57;17.00;;;12.50;;
20324;SDS011;10320;49.482;11.256;2022-10-31T04:13:28;14.00;;;12.30;;
20324;SDS011;10320;49.482;11.256;2022-10-31T04:15:55;18.40;;;12.70;;
20324;SDS011;10320;49.482;11.256;2022-10-31T04:18:22;14.17;;;11.73;;
20324;SDS011;10320;49.482;11.256;2022-10-31T04:20:48;17.27;;;12.07;;
20324;SDS011;10320;49.482;11.256;2022-10-31T04:23:24;16.73;;;12.53;;
20324;SDS011;10320;49.482;11.256;2022-10-31T04:25:51;17.33;;;12.07;;
20324;SDS011;10320;49.482;11.256;2022-10-31T04:28:17;14.13;;;12.23;;
20324;SDS011;10320;49.482;11.256;2022-10-31T04:30:43;14.57;;;12.23;;
20324;SDS011;10320;49.482;11.256;2022-10-31T04:33:09;15.87;;;11.43;;
20324;SDS011;10320;49.482;11.256;2022-10-31T04:35:35;15.67;;;10.70;;
20324;SDS011;10320;49.482;11.256;2022-10-31T04:38:01;13.87;;;11.30;;
20324;SDS011;10320;49.482;11.256;2022-10-31T04:40:27;15.53;;;11.20;;
20324;SDS011;10320;49.482;11.256;2022-10-31T04:42:53;15.20;;;11.33;;
20324;SDS011;10320;49.482;11.256;2022-10-31T04:45:19;15.47;;;10.90;;
20324;SDS011;10320;49.482;11.256;2022-10-31T04:47:45;19.10;;;12.63;;
20324;SDS011;10320;49.482;11.256;2022-10-31T04:50:12;13.67;;;11.47;;
20324;SDS011;10320;49.482;11.256;2022-10-31T04:52:38;14.03;;;11.27;;
20324;SDS011;10320;49.482;11.256;2022-10-31T04:55:04;14.13;;;11.47;;
20324;SDS011;10320;49.482;11.256;2022-10-31T04:57:30;15.33;;;11.73;;
20324;SDS011;10320;49.482;11.256;2022-10-31T04:59:56;15.43;;;12.20;;
20324;SDS011;10320;49.482;11.256;2022-10-31T05:02:22;15.10;;;12.53;;
20324;SDS011;10320;49.482;11.256;2022-10-31T05:04:48;17.20;;;12.83;;
20324;SDS011;10320;49.482;11.256;2022-10-31T05:07:14;15.73;;;12.07;;
20324;SDS011;10320;49.482;11.256;2022-10-31T05:09:40;14.77;;;11.97;;
20324;SDS011;10320;49.482;11.256;2022-10-31T05:12:06;18.70;;;12.50;;
20324;SDS011;10320;49.482;11.256;2022-10-31T05:14:32;18.07;;;12.90;;
20324;SDS011;10320;49.482;11.256;2022-10-31T05:16:58;16.07;;;12.47;;
20324;SDS011;10320;49.482;11.256;2022-10-31T05:19:24;18.67;;;14.33;;
20324;SDS011;10320;49.482;11.256;2022-10-31T05:21:50;17.87;;;12.80;;
20324;SDS011;10320;49.482;11.256;2022-10-31T05:24:16;16.27;;;11.60;;
20324;SDS011;10320;49.482;11.256;2022-10-31T05:26:42;16.40;;;12.03;;
20324;SDS011;10320;49.482;11.256;2022-10-31T05:29:08;15.63;;;12.00;;
20324;SDS011;10320;49.482;11.256;2022-10-31T05:31:34;18.90;;;13.97;;
20324;SDS011;10320;49.482;11.256;2022-10-31T05:34:00;28.13;;;20.03;;
20324;SDS011;10320;49.482;11.256;2022-10-31T05:36:26;29.90;;;23.50;;
20324;SDS011;10320;49.482;11.256;2022-10-31T05:38:52;24.10;;;20.03;;
20324;SDS011;10320;49.482;11.256;2022-10-31T05:41:18;22.10;;;17.10;;
20324;SDS011;10320;49.482;11.256;2022-10-31T05:43:45;19.70;;;15.53;;
20324;SDS011;10320;49.482;11.256;2022-10-31T05:46:11;18.50;;;13.77;;
20324;SDS011;10320;49.482;11.256;2022-10-31T05:48:37;16.77;;;13.53;;
20324;SDS011;10320;49.482;11.256;2022-10-31T05:51:03;16.57;;;12.63;;
20324;SDS011;10320;49.482;11.256;2022-10-31T05:53:29;15.07;;;12.33;;
20324;SDS011;10320;49.482;11.256;2022-10-31T05:55:55;18.67;;;13.30;;
20324;SDS011;10320;49.482;11.256;2022-10-31T05:58:22;19.37;;;13.43;;
20324;SDS011;10320;49.482;11.256;2022-10-31T06:00:48;23.37;;;14.37;;
20324;SDS011;10320;49.482;11.256;2022-10-31T06:03:14;15.43;;;12.40;;
20324;SDS011;10320;49.482;11.256;2022-10-31T06:05:40;14.83;;;12.33;;
20324;SDS011;10320;49.482;11.256;2022-10-31T06:08:06;15.93;;;12.40;;
20324;SDS011;10320;49.482;11.256;2022-10-31T06:10:32;14.93;;;12.07;;
20324;SDS011;10320;49.482;11.256;2022-10-31T06:12:58;14.20;;;11.60;;
20324;SDS011;10320;49.482;11.256;2022-10-31T06:15:24;16.27;;;12.50;;
20324;SDS011;10320;49.482;11.256;2022-10-31T06:18:03;15.13;;;11.70;;
20324;SDS011;10320;49.482;11.256;2022-10-31T06:20:30;16.53;;;11.13;;
20324;SDS011;10320;49.482;11.256;2022-10-31T06:22:56;13.83;;;11.30;;
20324;SDS011;10320;49.482;11.256;2022-10-31T06:25:22;17.00;;;11.23;;
20324;SDS011;10320;49.482;11.256;2022-10-31T06:27:48;12.33;;;11.07;;
20324;SDS011;10320;49.482;11.256;2022-10-31T06:30:14;13.47;;;11.80;;
20324;SDS011;10320;49.482;11.256;2022-10-31T06:32:40;15.40;;;12.07;;
20324;SDS011;10320;49.482;11.256;2022-10-31T06:35:06;17.00;;;11.87;;
20324;SDS011;10320;49.482;11.256;2022-10-31T06:37:32;14.40;;;11.47;;
20324;SDS011;10320;49.482;11.256;2022-10-31T06:39:58;14.97;;;10.70;;
20324;SDS011;10320;49.482;11.256;2022-10-31T06:42:24;15.53;;;11.63;;
20324;SDS011;10320;49.482;11.256;2022-10-31T06:44:50;15.37;;;12.30;;
20324;SDS011;10320;49.482;11.256;2022-10-31T06:47:16;12.87;;;11.23;;
20324;SDS011;10320;49.482;11.256;2022-10-31T06:49:42;14.40;;;11.03;;
20324;SDS011;10320;49.482;11.256;2022-10-31T06:52:08;14.43;;;11.30;;
20324;SDS011;10320;49.482;11.256;2022-10-31T06:54:34;13.37;;;11.23;;
20324;SDS011;10320;49.482;11.256;2022-10-31T06:57:00;14.40;;;11.10;;
20324;SDS011;10320;49.482;11.256;2022-10-31T06:59:25;16.07;;;11.17;;
20324;SDS011;10320;49.482;11.256;2022-10-31T07:01:51;15.50;;;10.60;;
20324;SDS011;10320;49.482;11.256;2022-10-31T07:04:17;13.50;;;11.87;;
20324;SDS011;10320;49.482;11.256;2022-10-31T07:06:42;13.03;;;11.50;;
20324;SDS011;10320;49.482;11.256;2022-10-31T07:09:08;17.30;;;12.23;;
20324;SDS011;10320;49.482;11.256;2022-10-31T07:11:34;14.50;;;11.37;;
20324;SDS011;10320;49.482;11.256;2022-10-31T07:13:59;11.77;;;10.47;;
20324;SDS011;10320;49.482;11.256;2022-10-31T07:16:25;12.77;;;9.87;;
20324;SDS011;10320;49.482;11.256;2022-10-31T07:18:50;13.07;;;10.53;;
20324;SDS011;10320;49.482;11.256;2022-10-31T07:21:16;13.13;;;11.03;;
20324;SDS011;10320;49.482;11.256;2022-10-31T07:23:42;11.63;;;10.17;;
20324;SDS011;10320;49.482;11.256;2022-10-31T07:26:08;12.80;;;9.90;;
20324;SDS011;10320;49.482;11.256;2022-10-31T07:28:35;12.33;;;9.53;;
20324;SDS011;10320;49.482;11.256;2022-10-31T07:31:01;10.70;;;9.47;;
20324;SDS011;10320;49.482;11.256;2022-10-31T07:33:27;12.97;;;9.90;;
20324;SDS011;10320;49.482;11.256;2022-10-31T07:35:53;12.37;;;9.97;;
20324;SDS011;10320;49.482;11.256;2022-10-31T07:38:19;12.30;;;10.50;;
20324;SDS011;10320;49.482;11.256;2022-10-31T07:40:48;10.40;;;9.13;;
20324;SDS011;10320;49.482;11.256;2022-10-31T07:43:14;12.57;;;9.13;;
20324;SDS011;10320;49.482;11.256;2022-10-31T07:45:41;10.10;;;8.60;;
20324;SDS011;10320;49.482;11.256;2022-10-31T07:48:06;10.57;;;8.73;;
20324;SDS011;10320;49.482;11.256;2022-10-31T07:50:32;11.83;;;8.47;;
20324;SDS011;10320;49.482;11.256;2022-10-31T07:53:04;8.67;;;7.77;;
20324;SDS011;10320;49.482;11.256;2022-10-31T07:55:39;10.47;;;9.13;;
20324;SDS011;10320;49.482;11.256;2022-10-31T07:58:09;12.40;;;8.83;;
20324;SDS011;10320;49.482;11.256;2022-10-31T08:00:37;13.67;;;9.67;;
20324;SDS011;10320;49.482;11.256;2022-10-31T08:03:05;17.07;;;10.40;;
20324;SDS011;10320;49.482;11.256;2022-10-31T08:05:32;13.37;;;9.53;;
20324;SDS011;10320;49.482;11.256;2022-10-31T08:07:59;12.40;;;8.73;;
20324;SDS011;10320;49.482;11.256;2022-10-31T08:10:25;12.63;;;9.00;;
20324;SDS011;10320;49.482;11.256;2022-10-31T08:12:55;11.57;;;8.90;;
20324;SDS011;10320;49.482;11.256;2022-10-31T08:15:25;11.40;;;9.37;;
20324;SDS011;10320;49.482;11.256;2022-10-31T08:17:51;10.23;;;9.13;;
20324;SDS011;10320;49.482;11.256;2022-10-31T08:20:17;12.67;;;9.90;;
20324;SDS011;10320;49.482;11.256;2022-10-31T08:22:43;10.73;;;9.27;;
20324;SDS011;10320;49.482;11.256;2022-10-31T08:25:25;10.10;;;9.07;;
20324;SDS011;10320;49.482;11.256;2022-10-31T08:27:52;9.57;;;8.63;;
20324;SDS011;10320;49.482;11.256;2022-10-31T08:30:19;12.63;;;9.47;;
20324;SDS011;10320;49.482;11.256;2022-10-31T08:32:46;10.87;;;9.53;;
20324;SDS011;10320;49.482;11.256;2022-10-31T08:35:12;12.00;;;9.53;;
20324;SDS011;10320;49.482;11.256;2022-10-31T08:37:37;10.77;;;9.20;;
20324;SDS011;10320;49.482;11.256;2022-10-31T08:40:03;10.23;;;9.13;;
20324;SDS011;10320;49.482;11.256;2022-10-31T08:42:30;12.07;;;8.70;;
20324;SDS011;10320;49.482;11.256;2022-10-31T08:44:55;9.70;;;8.37;;
20324;SDS011;10320;49.482;11.256;2022-10-31T08:47:21;10.33;;;9.03;;
20324;SDS011;10320;49.482;11.256;2022-10-31T08:49:47;10.97;;;9.20;;
20324;SDS011;10320;49.482;11.256;2022-10-31T08:52:13;12.97;;;9.40;;
20324;SDS011;10320;49.482;11.256;2022-10-31T08:54:40;14.60;;;9.83;;
20324;SDS011;10320;49.482;11.256;2022-10-31T08:57:05;12.70;;;9.30;;
20324;SDS011;10320;49.482;11.256;2022-10-31T08:59:31;10.63;;;9.57;;
20324;SDS011;10320;49.482;11.256;2022-10-31T09:01:56;12.27;;;9.67;;
20324;SDS011;10320;49.482;11.256;2022-10-31T09:04:22;11.73;;;9.80;;
20324;SDS011;10320;49.482;11.256;2022-10-31T09:06:47;12.03;;;9.30;;
20324;SDS011;10320;49.482;11.256;2022-10-31T09:09:13;13.20;;;9.37;;
20324;SDS011;10320;49.482;11.256;2022-10-31T09:11:39;11.97;;;8.83;;
20324;SDS011;10320;49.482;11.256;2022-10-31T09:14:04;12.43;;;8.97;;
20324;SDS011;10320;49.482;11.256;2022-10-31T09:16:30;13.17;;;9.13;;
20324;SDS011;10320;49.482;11.256;2022-10-31T09:18:55;8.80;;;7.90;;
20324;SDS011;10320;49.482;11.256;2022-10-31T09:21:21;11.20;;;8.03;;
20324;SDS011;10320;49.482;11.256;2022-10-31T09:23:47;9.70;;;8.20;;
20324;SDS011;10320;49.482;11.256;2022-10-31T09:26:12;14.47;;;8.73;;
20324;SDS011;10320;49.482;11.256;2022-10-31T09:28:38;10.10;;;8.57;;
20324;SDS011;10320;49.482;11.256;2022-10-31T09:31:03;11.50;;;8.47;;
20324;SDS011;10320;49.482;11.256;2022-10-31T09:33:29;11.73;;;7.90;;
20324;SDS011;10320;49.482;11.256;2022-10-31T09:35:57;10.40;;;7.33;;
20324;SDS011;10320;49.482;11.256;2022-10-31T09:38:23;10.87;;;7.83;;
20324;SDS011;10320;49.482;11.256;2022-10-31T09:41:23;9.60;;;7.73;;
20324;SDS011;10320;49.482;11.256;2022-10-31T09:44:25;9.77;;;7.50;;
20324;SDS011;10320;49.482;11.256;2022-10-31T09:49:50;11.83;;;7.33;;
20324;SDS011;10320;49.482;11.256;2022-10-31T09:54:53;8.90;;;7.10;;
20324;SDS011;10320;49.482;11.256;2022-10-31T09:57:29;11.90;;;7.53;;
20324;SDS011;10320;49.482;11.256;2022-10-31T09:59:58;12.30;;;7.53;;
20324;SDS011;10320;49.482;11.256;2022-10-31T10:04:57;11.27;;;6.77;;
20324;SDS011;10320;49.482;11.256;2022-10-31T10:10:01;7.87;;;6.23;;
20324;SDS011;10320;49.482;11.256;2022-10-31T10:23:42;8.73;;;5.70;;
20324;SDS011;10320;49.482;11.256;2022-10-31T10:26:21;6.70;;;5.10;;
20324;SDS011;10320;49.482;11.256;2022-10-31T10:28:51;10.40;;;5.17;;
20324;SDS011;10320;49.482;11.256;2022-10-31T10:31:23;9.10;;;5.50;;
20324;SDS011;10320;49.482;11.256;2022-10-31T10:36:49;8.18;;;4.93;;
20324;SDS011;10320;49.482;11.256;2022-10-31T10:39:20;8.87;;;5.03;;
20324;SDS011;10320;49.482;11.256;2022-10-31T10:42:12;6.73;;;4.80;;
20324;SDS011;10320;49.482;11.256;2022-10-31T10:44:58;8.20;;;4.43;;
20324;SDS011;10320;49.482;11.256;2022-10-31T10:47:43;9.13;;;5.30;;
20324;SDS011;10320;49.482;11.256;2022-10-31T10:55:24;7.57;;;4.88;;
20324;SDS011;10320;49.482;11.256;2022-10-31T10:58:02;8.90;;;5.57;;
20324;SDS011;10320;49.482;11.256;2022-10-31T11:00:32;9.02;;;5.13;;
20324;SDS011;10320;49.482;11.256;2022-10-31T11:03:07;12.00;;;5.10;;
20324;SDS011;10320;49.482;11.256;2022-10-31T11:08:09;8.15;;;5.00;;
20324;SDS011;10320;49.482;11.256;2022-10-31T11:10:55;9.50;;;4.85;;
20324;SDS011;10320;49.482;11.256;2022-10-31T11:13:29;7.55;;;4.97;;
20324;SDS011;10320;49.482;11.256;2022-10-31T11:16:04;8.00;;;5.50;;
20324;SDS011;10320;49.482;11.256;2022-10-31T11:18:43;9.60;;;5.13;;
20324;SDS011;10320;49.482;11.256;2022-10-31T11:21:21;8.82;;;4.93;;
20324;SDS011;10320;49.482;11.256;2022-10-31T11:23:50;10.35;;;6.78;;
20324;SDS011;10320;49.482;11.256;2022-10-31T11:26:47;7.15;;;4.85;;
20324;SDS011;10320;49.482;11.256;2022-10-31T11:31:52;6.65;;;4.38;;
20324;SDS011;10320;49.482;11.256;2022-10-31T11:34:34;7.68;;;4.50;;
20324;SDS011;10320;49.482;11.256;2022-10-31T11:37:04;6.57;;;4.22;;
20324;SDS011;10320;49.482;11.256;2022-10-31T11:39:41;8.27;;;4.28;;
20324;SDS011;10320;49.482;11.256;2022-10-31T11:42:09;5.78;;;3.53;;
20324;SDS011;10320;49.482;11.256;2022-10-31T11:44:35;6.15;;;4.03;;
20324;SDS011;10320;49.482;11.256;2022-10-31T11:47:02;7.30;;;4.55;;
20324;SDS011;10320;49.482;11.256;2022-10-31T11:52:03;5.97;;;3.55;;
20324;SDS011;10320;49.482;11.256;2022-10-31T11:54:47;8.85;;;4.03;;
20324;SDS011;10320;49.482;11.256;2022-10-31T11:57:48;8.77;;;4.60;;
20324;SDS011;10320;49.482;11.256;2022-10-31T12:00:25;6.38;;;3.78;;
20324;SDS011;10320;49.482;11.256;2022-10-31T12:02:51;7.00;;;3.70;;
20324;SDS011;10320;49.482;11.256;2022-10-31T12:05:55;7.82;;;3.65;;
20324;SDS011;10320;49.482;11.256;2022-10-31T12:08:34;7.38;;;3.40;;
20324;SDS011;10320;49.482;11.256;2022-10-31T12:11:27;5.93;;;3.65;;
20324;SDS011;10320;49.482;11.256;2022-10-31T12:16:52;4.95;;;3.30;;
20324;SDS011;10320;49.482;11.256;2022-10-31T12:22:24;5.32;;;3.30;;
20324;SDS011;10320;49.482;11.256;2022-10-31T12:25:17;5.90;;;3.60;;
20324;SDS011;10320;49.482;11.256;2022-10-31T12:30:40;7.55;;;3.17;;
20324;SDS011;10320;49.482;11.256;2022-10-31T12:33:24;5.07;;;3.10;;
20324;SDS011;10320;49.482;11.256;2022-10-31T12:39:17;5.97;;;2.90;;
20324;SDS011;10320;49.482;11.256;2022-10-31T12:42:09;5.05;;;3.08;;
20324;SDS011;10320;49.482;11.256;2022-10-31T12:44:49;4.88;;;3.00;;
20324;SDS011;10320;49.482;11.256;2022-10-31T12:56:14;6.43;;;3.05;;
20324;SDS011;10320;49.482;11.256;2022-10-31T12:59:28;7.72;;;2.80;;
20324;SDS011;10320;49.482;11.256;2022-10-31T13:01:50;6.68;;;2.80;;
20324;SDS011;10320;49.482;11.256;2022-10-31T13:04:25;6.05;;;2.80;;
20324;SDS011;10320;49.482;11.256;2022-10-31T13:13:07;4.07;;;2.42;;
20324;SDS011;10320;49.482;11.256;2022-10-31T13:15:49;6.18;;;3.00;;
20324;SDS011;10320;49.482;11.256;2022-10-31T13:18:27;5.68;;;2.72;;
20324;SDS011;10320;49.482;11.256;2022-10-31T13:21:08;7.63;;;3.30;;
20324;SDS011;10320;49.482;11.256;2022-10-31T13:23:40;6.20;;;2.80;;
20324;SDS011;10320;49.482;11.256;2022-10-31T13:26:15;4.55;;;2.65;;
20324;SDS011;10320;49.482;11.256;2022-10-31T13:28:56;6.90;;;2.50;;
20324;SDS011;10320;49.482;11.256;2022-10-31T13:31:28;5.28;;;3.10;;
20324;SDS011;10320;49.482;11.256;2022-10-31T13:33:57;3.28;;;2.63;;
20324;SDS011;10320;49.482;11.256;2022-10-31T13:36:36;6.32;;;2.72;;
20324;SDS011;10320;49.482;11.256;2022-10-31T13:39:18;7.53;;;2.65;;
20324;SDS011;10320;49.482;11.256;2022-10-31T13:45:10;4.65;;;2.65;;
20324;SDS011;10320;49.482;11.256;2022-10-31T13:47:41;4.60;;;2.85;;
20324;SDS011;10320;49.482;11.256;2022-10-31T13:50:23;4.60;;;2.80;;
20324;SDS011;10320;49.482;11.256;2022-10-31T13:52:51;4.95;;;2.83;;
20324;SDS011;10320;49.482;11.256;2022-10-31T13:58:28;5.03;;;2.80;;
20324;SDS011;10320;49.482;11.256;2022-10-31T14:06:44;4.75;;;2.63;;
20324;SDS011;10320;49.482;11.256;2022-10-31T14:09:19;6.55;;;2.75;;
20324;SDS011;10320;49.482;11.256;2022-10-31T14:11:53;5.47;;;2.75;;
20324;SDS011;10320;49.482;11.256;2022-10-31T14:14:21;6.50;;;2.67;;
20324;SDS011;10320;49.482;11.256;2022-10-31T14:16:55;5.95;;;2.70;;
20324;SDS011;10320;49.482;11.256;2022-10-31T14:19:22;4.57;;;2.45;;
20324;SDS011;10320;49.482;11.256;2022-10-31T14:21:49;4.22;;;2.28;;
20324;SDS011;10320;49.482;11.256;2022-10-31T14:27:35;4.35;;;2.60;;
20324;SDS011;10320;49.482;11.256;2022-10-31T14:29:45;7.30;;;3.15;;
20324;SDS011;10320;49.482;11.256;2022-10-31T14:50:34;7.00;;;2.95;;
20324;SDS011;10320;49.482;11.256;2022-10-31T14:53:02;6.93;;;3.30;;
20324;SDS011;10320;49.482;11.256;2022-10-31T14:55:29;4.97;;;3.03;;
20324;SDS011;10320;49.482;11.256;2022-10-31T14:58:00;3.58;;;2.92;;
20324;SDS011;10320;49.482;11.256;2022-10-31T15:00:27;5.40;;;3.10;;
20324;SDS011;10320;49.482;11.256;2022-10-31T15:05:40;7.32;;;3.22;;
20324;SDS011;10320;49.482;11.256;2022-10-31T15:08:12;9.70;;;3.78;;
20324;SDS011;10320;49.482;11.256;2022-10-31T15:10:38;4.88;;;3.13;;
20324;SDS011;10320;49.482;11.256;2022-10-31T15:13:10;6.37;;;3.40;;
20324;SDS011;10320;49.482;11.256;2022-10-31T15:15:40;7.55;;;3.40;;
20324;SDS011;10320;49.482;11.256;2022-10-31T15:18:06;5.93;;;3.57;;
20324;SDS011;10320;49.482;11.256;2022-10-31T15:20:42;7.22;;;3.08;;
20324;SDS011;10320;49.482;11.256;2022-10-31T15:23:10;7.17;;;3.60;;
20324;SDS011;10320;49.482;11.256;2022-10-31T15:25:37;6.17;;;3.67;;
20324;SDS011;10320;49.482;11.256;2022-10-31T15:28:12;5.03;;;3.60;;
20324;SDS011;10320;49.482;11.256;2022-10-31T15:30:38;4.87;;;3.03;;
20324;SDS011;10320;49.482;11.256;2022-10-31T15:33:17;7.43;;;3.43;;
20324;SDS011;10320;49.482;11.256;2022-10-31T15:35:53;7.17;;;3.40;;
20324;SDS011;10320;49.482;11.256;2022-10-31T15:38:20;7.77;;;3.70;;
20324;SDS011;10320;49.482;11.256;2022-10-31T15:40:54;7.93;;;3.60;;
20324;SDS011;10320;49.482;11.256;2022-10-31T15:43:21;6.67;;;3.37;;
20324;SDS011;10320;49.482;11.256;2022-10-31T15:45:47;6.37;;;3.33;;
20324;SDS011;10320;49.482;11.256;2022-10-31T15:48:19;8.80;;;3.80;;
20324;SDS011;10320;49.482;11.256;2022-10-31T15:50:48;6.57;;;3.53;;
20324;SDS011;10320;49.482;11.256;2022-10-31T15:53:20;8.10;;;4.90;;
20324;SDS011;10320;49.482;11.256;2022-10-31T15:55:51;30.70;;;24.70;;
20324;SDS011;10320;49.482;11.256;2022-10-31T15:58:19;9.93;;;7.30;;
20324;SDS011;10320;49.482;11.256;2022-10-31T16:00:45;7.57;;;4.43;;
20324;SDS011;10320;49.482;11.256;2022-10-31T16:03:26;7.67;;;4.10;;
20324;SDS011;10320;49.482;11.256;2022-10-31T16:05:57;5.00;;;3.83;;
20324;SDS011;10320;49.482;11.256;2022-10-31T16:08:24;6.50;;;3.90;;
20324;SDS011;10320;49.482;11.256;2022-10-31T16:10:50;9.30;;;4.07;;
20324;SDS011;10320;49.482;11.256;2022-10-31T16:13:17;9.87;;;5.60;;
20324;SDS011;10320;49.482;11.256;2022-10-31T16:15:50;17.77;;;13.97;;
20324;SDS011;10320;49.482;11.256;2022-10-31T16:18:17;17.50;;;15.50;;
20324;SDS011;10320;49.482;11.256;2022-10-31T16:20:53;9.67;;;8.67;;
20324;SDS011;10320;49.482;11.256;2022-10-31T16:23:20;9.30;;;6.80;;
20324;SDS011;10320;49.482;11.256;2022-10-31T16:25:47;7.80;;;4.23;;
20324;SDS011;10320;49.482;11.256;2022-10-31T16:28:18;6.47;;;3.80;;
20324;SDS011;10320;49.482;11.256;2022-10-31T16:30:45;7.67;;;4.27;;
20324;SDS011;10320;49.482;11.256;2022-10-31T16:35:50;7.85;;;4.43;;
20324;SDS011;10320;49.482;11.256;2022-10-31T16:38:16;5.33;;;4.77;;
20324;SDS011;10320;49.482;11.256;2022-10-31T16:40:42;7.60;;;4.60;;